Australian Towns and Cities METAR Reports

YMHB - Hobart/Tasmania, Australia
Distance from Franklin: NE 55km
Updated: 15/11/2018 18:30 AEDT
Mostly cloudy
Mostly cloudy
 Wind from S
Wind: S 24 km/h
Temperature: 12°C
Dew Point: 0°C
Humidity: 44%
Barometer: 1025 hPa
Clouds: Mostly cloudy
Visibility: 10 km
Cloud details: Few Clouds 1219 m
Mostly cloudy 1524 m
2018/11/15 07:30 YMHB 150730Z 18013KT 9999 FEW040 BKN050 12/00 Q1025 RF00.0/000.8
YMLT - Launceston Airpo, Australia
Distance from Franklin: N 179km
Updated: 15/11/2018 19:00 AEDT
Overcast
Overcast
 Wind from NNW
Wind: NNW 26 km/h
Temperature: 14°C
Dew Point: 7°C
Humidity: 63%
Barometer: 1022 hPa
Clouds: Overcast
Visibility: 10 km
Cloud details: Overcast 2286 m
2018/11/15 08:00 YMLT 150800Z AUTO 34014KT 9999 // OVC075 14/07 Q1022
 
YMML - Melbourne Intl A, Australia
Distance from Franklin: NNW 631km
Updated: 15/11/2018 19:00 AEDT
Partly cloudy
Partly cloudy
 Wind from S
Wind: S 28 km/h
Temperature: 14°C
Dew Point: 6°C
Humidity: 59%
Barometer: 1023 hPa
Clouds: Partly cloudy
Visibility: 10 km
Cloud details: Few Clouds 1067 m
Partly cloudy 6401 m
2018/11/15 08:00 YMML 150800Z 18015KT 9999 FEW035 SCT210 14/06 Q1023
YSCB - Canberra (civ/Mi, Australia
Distance from Franklin: NNE 888km
Updated: 15/11/2018 19:00 AEDT
Mostly cloudy
Mostly cloudy
 Wind from E
Wind: E 17 km/h
Temperature: 15°C
Dew Point: 10°C
Humidity: 72%
Barometer: 1021 hPa
Clouds: Mostly cloudy
Visibility: 10 km
Cloud details: Few Clouds 762 m
Mostly cloudy 914 m
2018/11/15 08:00 YSCB 150800Z 09009KT 9999 FEW025 BKN030 15/10 Q1021 NOSIG
 
YSSY - Sydney Intl Airp, Australia
Distance from Franklin: NNE 1083km
Updated: 15/11/2018 19:00 AEDT
Mostly cloudy
Mostly cloudy
 Wind from S
Wind: S 35 km/h
Temperature: 17°C
Dew Point: 15°C
Humidity: 88%
Barometer: 1021 hPa
Clouds: Mostly cloudy
Visibility: 10 km
Cloud details: Partly cloudy 457 m
Mostly cloudy 610 m
Mostly cloudy 914 m
2018/11/15 08:00 YSSY 150800Z 17019KT 9999 SCT015 BKN020 BKN030 17/15 Q1021
YPAD - Adelaide Intl Ar, Australia
Distance from Franklin: NW 1166km
Updated: 15/11/2018 19:00 AEDT
Clear
Clear
 Wind from S
Wind: S 28 km/h
Temperature: 21°C
Dew Point: 5°C
Humidity: 35%
Barometer: 1021 hPa
Summary: Clear
Visibility: greater than 10 km
2018/11/15 08:00 YPAD 150800Z 17015KT CAVOK 21/05 Q1021 FM0830 14010KT CAVOK
 
YBBN - Brisbane Intl Ar, Australia
Distance from Franklin: NNE 1836km
Updated: 15/11/2018 19:00 AEDT
Few Clouds
Few Clouds
 Wind from NE
Wind: NE 15 km/h
Temperature: 24°C
Dew Point: 18°C
Humidity: 69%
Barometer: 1016 hPa
Clouds: Few Clouds
Visibility: 10 km
Cloud details: Few Clouds 884 m
2018/11/15 08:00 YBBN 150800Z 04008KT 9999 FEW029 24/18 Q1016
YBMK - Mackay, Australia
Distance from Franklin: N 2456km
Updated: 15/11/2018 18:00 AEDT
Clear
Clear
 Wind from E
Wind: E 24 km/h
Temperature: 28°C
Heat Index: 29°C
Dew Point: 19°C
Humidity: 58%
Barometer: 1014 hPa
Clouds: Clear
Visibility: 10 km
2018/11/15 07:00 YBMK 150700Z AUTO 10013KT 9999 // NCD 28/19 Q1014
 
YBAS - Alice Springs Ar, Australia
Distance from Franklin: NNW 2462km
Updated: 15/11/2018 19:00 AEDT
Clear
Clear
 Wind from ESE
Wind: ESE 26 km/h
Temperature: 34°C
Dew Point: 10°C
Humidity: 23%
Barometer: 1015 hPa
Clouds: Clear
Visibility: 10 km
2018/11/15 08:00 YBAS 150800Z AUTO 12014KT 9999 // NCD 34/10 Q1015
YBTL - Townsville(Civ/M, Australia
Distance from Franklin: N 2655km
Updated: 15/11/2018 19:00 AEDT
Clear
Clear
 Wind from ENE
Wind: ENE 20 km/h
Temperature: 27°C
Heat Index: 28°C
Dew Point: 18°C
Humidity: 58%
Barometer: 1013 hPa
Summary: Clear
Visibility: greater than 10 km
2018/11/15 08:00 YBTL 150800Z 07011KT CAVOK 27/18 Q1013
 
YBCS - Cairns Airport, Australia
Distance from Franklin: N 2923km
Updated: 15/11/2018 19:00 AEDT
Few Clouds
Few Clouds
 Wind from ESE
Wind: ESE 24 km/h
Temperature: 28°C
Heat Index: 29°C
Dew Point: 19°C
Humidity: 58%
Barometer: 1013 hPa
Clouds: Few Clouds
Visibility: 10 km
Cloud details: Few Clouds 853 m
2018/11/15 08:00 YBCS 150800Z 11013KT 9999 FEW028 28/19 Q1013
YPPH - Perth Intl/Belmo, Australia
Distance from Franklin: WNW 2982km
Updated: 15/11/2018 19:00 AEDT
Clear
Clear
 Wind from SSW
Wind: SSW 31 km/h
Temperature: 34°C
Dew Point: 11°C
Humidity: 24%
Barometer: 1013 hPa
Summary: Clear
Visibility: greater than 10 km
2018/11/15 08:00 YPPH 150800Z 21017KT CAVOK 34/11 Q1013 NOSIG
 
YPDN - Darwin (civ/Mil), Australia
Distance from Franklin: NNW 3749km
Updated: 15/11/2018 19:00 AEDT
Few Clouds
Few Clouds
 Wind from NNW
Wind: NNW 13 km/h
Temperature: 32°C
Heat Index: 37°C
Dew Point: 23°C
Humidity: 59%
Barometer: 1008 hPa
Clouds: Few Clouds
Visibility: 10 km
Cloud details: Few Clouds 1219 m
2018/11/15 08:00 YPDN 150800Z 34007KT 9999 FEW040 32/23 Q1008
YBWX - Barrow Island, Australia
Distance from Franklin: NW 3832km
Updated: 15/11/2018 19:00 AEDT

 Wind from NW
Wind: NW 30 km/h
Temperature: 29°C
Heat Index: 29°C
Dew Point: 18°C
Humidity: 51%
Barometer: 1011 hPa
2018/11/15 08:00 YBWX 150800Z AUTO 32016KT //// // ////// 29/18 Q1011